Pembrey Sands, United Kingdom

9:58 PM BST on July 06, 2015 (GMT +0100)
Ffos las | | Change Station
CLOSE
Current Station
Personal Weather Station
Location: Carway, CARMARTHENSHIRE
Elevation: 223 ft
Nearby Weather Stations

Elev 223 ft 51.73 °N, 4.23 °W | Updated 2 minutes ago

Mostly Cloudy
Mostly Cloudy
59.4 °F
Feels Like 59.4 °F
N
5.1
Wind Variable Wind from NW
Gusts 5.1 mph

Today
High -- | Low -- °F
--% Chance of Precip.
Yesterday
High -- | Low -- °F
Precip. -- in
5:07 AM 9:36 PM
Waning Gibbous, 72% visible
Pressure 29.92 in
Visibility 6.2 miles
Clouds Mostly Cloudy 4800 ft
Dew Point 37 °F
Humidity 43%
Rainfall 0.26 in
Snow Depth Not available.
UV 0 out of 12
Pollen Not available.
Air Quality Not available.
Flu Activity Not available.
METAR EGFF 062050Z 18012KT 9999 BKN048 17/12 Q1013

More Conditions Fewer Conditions

Pressure 29.92 in
Visibility 6.2 miles
Clouds Mostly Cloudy 4800 ft
Dew Point 37 °F
Humidity 43%
Rainfall 0.26 in
Snow Depth Not available.
UV 0 out of 12
Pollen Not available.
Air Quality Not available.
Flu Activity Not available.
METAR EGFF 062050Z 18012KT 9999 BKN048 17/12 Q1013

More Conditions Fewer Conditions

10-Day Weather Forecast

×

Almanac

Astronomy

Jul. 06, 2015 Rise Set
Actual Time
Civil Twilight
Nautical Twilight
Astronomical Twilight
Moon
Length of Visible Light
Length of Day
Tomorrow will be .
, % of the Moon is Illuminated

Today's Extremes

Country Highs Country Lows

Community

WunderPhotos

Upload Photos

1,835,638 photos uploaded!

WunderBlogs® & News

Nearby

Air Quality

  Air Quality AQ Index Pollutant
Not available.

Snow Depth

Station Depth Elevation

Earthquake Activity

City Distance Mag. Time & Date
Minimum magnitude displayed is 2.5.

Coastal Water Temperatures

Place Temperature

Stations

Nearby Weather Stations

Station Location Temp. Windchill Dew Point Humidity Wind Precip. Elev Updated Type